Estación Meteorológica Peña el Pijo (Robertgarden) [ 01/30/23 13:56:59 CET ]

Fecha Hora Presion(HPa) Temp (°C) Humedad % Rocio (°C) Viento ( m/s) Direccion Lluvia 1Hora(mm) Lluvia 24H(mm) LLuvia Total(mm)
2010-Apr-04 01:01:18 1008.200 6.9 66 1.0         104.63
2010-Apr-04 02:01:17 1008.300 8.6 64 2.1         104.63
2010-Apr-04 03:09:09 1008.000 7.1 68 1.6         104.63
2010-Apr-04 04:01:13 1008.300 7.0 75 2.9         104.63
2010-Apr-04 05:01:16 1008.400 5.8 81 2.8         104.63
2010-Apr-04 06:01:14 1009.700 4.9 80 1.7     1.03 1.03 105.67
2010-Apr-04 07:01:13 1010.600 3.7 83 1.1       1.03 105.67
2010-Apr-04 08:01:11 1011.300 3.1 84 0.6       1.03 105.67
2010-Apr-04 09:01:16 1012.300 4.9 83 2.2       1.03 105.67
2010-Apr-04 10:01:17 1013.200 7.9 70 2.8       1.03 105.67
2010-Apr-04 11:01:15 1013.400 9.3 61 2.2       1.03 105.67
2010-Apr-04 12:01:12 1014.100 10.9 54 1.9 0.5 SW   1.03 105.67
2010-Apr-04 13:01:18 1014.600 12.6 41 -0.3 1.0 N   1.03 105.67
2010-Apr-04 14:01:15 1014.600 13.4 39 -0.3       1.03 105.67
2010-Apr-04 15:01:12 1014.900 14.0 31 -2.9 1.7 NW   1.03 105.67
2010-Apr-04 16:01:19 1014.700 15.0 28 -3.5       1.03 105.67
2010-Apr-04 17:01:12 1014.800 15.2 27 -3.9       1.03 105.67
2010-Apr-04 18:01:13 1014.700 15.5 27 -3.6       1.03 105.67
2010-Apr-04 19:01:12 1015.100 15.2 28 -3.3 0.9 NW   1.03 105.67
2010-Apr-04 20:01:16 1015.200 11.6 32 -4.6       1.03 105.67
2010-Apr-04 21:01:13 1015.900 9.4 40 -3.5       1.03 105.67
2010-Apr-04 22:01:14 1016.800 6.5 50 -3.1       1.03 105.67
2010-Apr-04 23:01:14 1017.500 4.9 59 -2.5       1.03 105.67

Temperatura Máxima:15°    Temperatura Mínima:
Presión Máxima:1017.500 Hpa    Presión Mínima:1008.000 Hpa


Volver